Runaway Bay, Texas
Current Conditions -  °F | °C
As of 2:35 PM on Wednesday 26 Nov 2014 (Local Time) from KXBP Reporting Station
Clear Clear  
Wind Chill: 16°   Ceiling: Unl
Heat Index: 16°   Visibility: 10mi
Dew Point:   Wind: 8mph
Humidity: 41%   Direction: 330°NNW
Pressure: 30.23"   Gusts: NA
Location:  33.1691°N, 97.8246°W
Report Text: KXBP 262035Z AUTO 33007KT 10SM CLR 16/03 A3023 RMK AO2 T01620030
Loading
Personal Weather Stations






























Interactive Weather Map New forecast layout! Learn more

10-Day Weather Forecast

Advertisements
Track Severe Weather on mobile